createdAt,value
2023-03-26T00:01:41.948Z,6.79
2023-03-26T00:04:09.824Z,6.87
2023-03-26T00:06:39.167Z,6.99
2023-03-26T00:09:07.891Z,7.14
2023-03-26T00:11:35.928Z,7.06
2023-03-26T00:14:13.901Z,6.94
2023-03-26T00:16:43.771Z,6.86
2023-03-26T00:19:12.843Z,7.00
2023-03-26T00:21:41.462Z,6.90
2023-03-26T00:24:11.795Z,6.93
2023-03-26T00:26:42.040Z,6.94
2023-03-26T00:29:13.538Z,7.12
2023-03-26T00:31:46.532Z,6.99
2023-03-26T00:34:16.840Z,6.95
2023-03-26T00:36:47.006Z,6.94
2023-03-26T00:39:15.302Z,7.05
2023-03-26T00:41:43.348Z,6.98
2023-03-26T00:44:11.513Z,7.01
2023-03-26T00:46:39.443Z,6.92
2023-03-26T00:49:10.800Z,6.92
2023-03-26T00:51:41.919Z,6.94
2023-03-26T00:54:09.743Z,6.90
2023-03-26T00:56:38.899Z,6.96
2023-03-26T00:59:06.865Z,6.94
2023-03-26T01:01:34.878Z,7.06
2023-03-26T01:04:28.127Z,7.06
2023-03-26T01:06:58.547Z,7.03
2023-03-26T01:09:33.071Z,7.05
2023-03-26T01:12:03.374Z,7.06
2023-03-26T01:14:31.209Z,7.00
2023-03-26T01:17:01.358Z,7.06
2023-03-26T01:19:34.084Z,7.08
2023-03-26T01:22:03.999Z,7.12
2023-03-26T01:24:42.991Z,7.11
2023-03-26T01:27:19.999Z,7.16
2023-03-26T01:29:54.690Z,7.18
2023-03-26T01:32:41.281Z,7.16
2023-03-26T01:35:16.095Z,7.19
2023-03-26T01:37:48.154Z,7.17
2023-03-26T01:40:18.966Z,7.25
2023-03-26T01:42:54.695Z,7.14
2023-03-26T01:45:23.395Z,7.13
2023-03-26T01:47:51.200Z,7.22
2023-03-26T01:50:19.010Z,7.40
2023-03-26T01:52:46.784Z,7.30
2023-03-26T01:55:14.551Z,7.17
2023-03-26T01:57:49.700Z,7.17
2023-03-26T02:00:22.135Z,7.26
2023-03-26T02:03:03.490Z,7.09
2023-03-26T02:05:33.176Z,7.10
2023-03-26T02:08:03.515Z,7.09
2023-03-26T02:10:34.870Z,7.18
2023-03-26T02:13:03.976Z,7.08
2023-03-26T02:15:31.716Z,7.13
2023-03-26T02:17:59.720Z,7.13
2023-03-26T02:20:30.057Z,7.13
2023-03-26T02:22:58.043Z,7.18
2023-03-26T02:25:26.552Z,7.21
2023-03-26T02:27:54.657Z,7.12
2023-03-26T02:30:26.121Z,7.01
2023-03-26T02:32:59.352Z,7.00
2023-03-26T02:35:32.304Z,7.06
2023-03-26T02:38:02.110Z,7.06
2023-03-26T02:40:33.143Z,7.01
2023-03-26T02:43:01.117Z,7.14
2023-03-26T02:45:33.132Z,7.00
2023-03-26T02:48:21.625Z,7.08
2023-03-26T02:50:55.820Z,7.14
2023-03-26T02:53:41.999Z,7.12
2023-03-26T02:56:32.926Z,7.15
2023-03-26T02:59:30.401Z,7.13
2023-03-26T03:02:24.300Z,7.23
2023-03-26T03:05:01.427Z,7.13
2023-03-26T03:07:37.848Z,7.18
2023-03-26T03:10:10.054Z,7.26
2023-03-26T03:12:56.259Z,7.22
2023-03-26T03:15:24.036Z,7.23
2023-03-26T03:17:53.159Z,7.21
2023-03-26T03:20:22.223Z,7.31
2023-03-26T03:22:50.123Z,7.30
2023-03-26T03:25:18.242Z,7.22
2023-03-26T03:27:47.949Z,7.11
2023-03-26T03:30:16.339Z,7.26
2023-03-26T03:32:47.055Z,7.07
2023-03-26T03:35:20.889Z,7.04
2023-03-26T03:37:53.164Z,7.16
2023-03-26T03:40:21.163Z,7.10
2023-03-26T03:42:49.349Z,7.05
2023-03-26T03:45:27.820Z,7.15
2023-03-26T03:48:24.469Z,7.06
2023-03-26T03:50:55.112Z,7.13
2023-03-26T03:53:26.964Z,7.17
2023-03-26T03:55:57.583Z,7.19
2023-03-26T03:58:41.010Z,7.24
2023-03-26T04:01:15.350Z,7.26
2023-03-26T04:03:57.724Z,7.19
2023-03-26T04:06:34.600Z,7.22
2023-03-26T04:09:02.373Z,7.28
2023-03-26T04:11:30.846Z,7.10
2023-03-26T04:14:20.301Z,7.26
2023-03-26T04:17:00.017Z,7.19
2023-03-26T04:19:30.458Z,7.34
2023-03-26T04:22:02.569Z,7.33
2023-03-26T04:24:40.114Z,7.19
2023-03-26T04:27:27.414Z,7.15
2023-03-26T04:30:02.671Z,7.10
2023-03-26T04:32:34.326Z,7.23
2023-03-26T04:35:04.089Z,7.19
2023-03-26T04:37:35.306Z,7.15
2023-03-26T04:40:13.141Z,7.20
2023-03-26T04:42:54.669Z,7.23
2023-03-26T04:45:57.324Z,7.13
2023-03-26T04:48:28.324Z,7.06
2023-03-26T04:50:56.134Z,7.01
2023-03-26T04:53:25.707Z,7.16
2023-03-26T04:56:31.457Z,7.23
2023-03-26T04:59:20.226Z,7.23
2023-03-26T05:01:49.604Z,7.40
2023-03-26T05:04:18.779Z,7.26
2023-03-26T05:06:46.656Z,7.28
2023-03-26T05:09:24.998Z,7.13
2023-03-26T05:12:25.453Z,6.90
2023-03-26T05:14:59.111Z,6.84
2023-03-26T05:17:41.595Z,6.74
2023-03-26T05:20:20.752Z,6.93
2023-03-26T05:22:48.804Z,6.96
2023-03-26T05:25:24.610Z,6.90
2023-03-26T05:27:52.849Z,6.99
2023-03-26T05:30:22.896Z,6.81
2023-03-26T05:32:56.704Z,7.11
2023-03-26T05:35:30.954Z,6.93
2023-03-26T05:37:58.878Z,6.85
2023-03-26T05:40:28.680Z,7.01
2023-03-26T05:42:59.864Z,7.14
2023-03-26T05:45:48.601Z,6.89
2023-03-26T05:48:26.990Z,6.94
2023-03-26T05:50:56.178Z,6.89
2023-03-26T05:53:25.835Z,6.92
2023-03-26T05:56:32.928Z,6.88
2023-03-26T05:59:09.689Z,7.14
2023-03-26T06:01:56.216Z,7.21
2023-03-26T06:04:56.923Z,6.94
2023-03-26T06:07:43.281Z,7.04
2023-03-26T06:10:18.132Z,7.04
2023-03-26T06:12:49.637Z,7.21
2023-03-26T06:15:20.074Z,7.30
2023-03-26T06:17:51.159Z,7.07
2023-03-26T06:20:37.522Z,7.17
2023-03-26T06:23:11.604Z,7.24
2023-03-26T06:26:05.973Z,7.39
2023-03-26T06:28:53.693Z,7.22
2023-03-26T06:32:03.423Z,7.33
2023-03-26T06:34:45.521Z,7.36
2023-03-26T06:37:13.529Z,7.43
2023-03-26T06:39:42.744Z,7.31
2023-03-26T06:42:18.708Z,7.26
2023-03-26T06:44:58.540Z,7.32
2023-03-26T06:47:35.127Z,7.34
2023-03-26T06:50:26.024Z,7.48
2023-03-26T06:53:09.479Z,7.57
2023-03-26T06:55:57.638Z,7.49
2023-03-26T06:58:40.907Z,7.57
2023-03-26T07:01:46.468Z,7.60
2023-03-26T07:04:49.760Z,7.67
2023-03-26T07:07:36.201Z,7.72
2023-03-26T07:10:32.439Z,7.67
2023-03-26T07:13:18.684Z,7.65
2023-03-26T07:16:05.648Z,7.68
2023-03-26T07:18:55.333Z,7.76
2023-03-26T07:21:27.044Z,7.80
2023-03-26T07:23:56.686Z,7.81
2023-03-26T07:26:49.236Z,7.86
2023-03-26T07:29:22.049Z,7.85
2023-03-26T07:32:21.292Z,7.92
2023-03-26T07:35:12.277Z,7.85
2023-03-26T07:38:20.383Z,8.09
2023-03-26T07:41:18.417Z,8.08
2023-03-26T07:44:12.999Z,8.03
2023-03-26T07:47:02.277Z,8.06
2023-03-26T07:49:44.840Z,8.02
2023-03-26T07:52:26.734Z,7.97
2023-03-26T07:55:13.025Z,8.14
2023-03-26T07:58:04.712Z,8.27
2023-03-26T08:00:47.721Z,8.49
2023-03-26T08:03:31.616Z,8.51
2023-03-26T08:06:19.483Z,8.44
2023-03-26T08:09:11.608Z,8.62
2023-03-26T08:12:02.432Z,8.81
2023-03-26T08:14:38.579Z,8.70
2023-03-26T08:17:08.950Z,8.80
2023-03-26T08:19:43.343Z,8.84
2023-03-26T08:22:13.707Z,8.78
2023-03-26T08:24:47.394Z,9.07
2023-03-26T08:27:18.755Z,9.10
2023-03-26T08:29:50.124Z,8.95
2023-03-26T08:32:19.257Z,8.81
2023-03-26T08:34:47.111Z,9.10
2023-03-26T08:37:15.492Z,9.66
2023-03-26T08:39:45.332Z,9.39
2023-03-26T08:42:44.911Z,9.56
2023-03-26T08:45:31.885Z,9.69
2023-03-26T08:48:51.800Z,9.78
2023-03-26T08:51:53.456Z,9.90
2023-03-26T08:54:49.639Z,9.44
2023-03-26T08:57:33.837Z,9.17
2023-03-26T09:00:30.732Z,9.45
2023-03-26T09:03:10.808Z,9.45
2023-03-26T09:06:17.927Z,9.39
2023-03-26T09:09:27.487Z,9.49
2023-03-26T09:12:31.788Z,9.78
2023-03-26T09:15:34.158Z,10.44
2023-03-26T09:18:29.784Z,9.95
2023-03-26T09:21:22.429Z,9.91
2023-03-26T09:24:15.896Z,9.81
2023-03-26T09:26:48.021Z,9.98
2023-03-26T09:32:23.324Z,10.19
2023-03-26T09:35:03.991Z,10.09
2023-03-26T09:37:57.734Z,10.33
2023-03-26T09:40:33.149Z,10.58
2023-03-26T09:48:55.035Z,10.12
2023-03-26T09:51:44.663Z,10.12
2023-03-26T09:54:51.079Z,10.60
2023-03-26T09:57:28.032Z,10.41
2023-03-26T10:00:01.757Z,10.45
2023-03-26T10:02:46.514Z,10.46
2023-03-26T10:05:32.143Z,10.86
2023-03-26T10:08:14.516Z,10.49
2023-03-26T10:10:44.437Z,10.52
2023-03-26T10:13:18.560Z,10.63
2023-03-26T10:15:57.260Z,10.53
2023-03-26T10:18:29.632Z,10.86
2023-03-26T10:21:02.424Z,10.52
2023-03-26T10:23:49.877Z,10.48
2023-03-26T10:26:28.832Z,11.06
2023-03-26T10:29:17.643Z,10.67
2023-03-26T10:31:51.432Z,10.61
2023-03-26T10:34:29.702Z,10.68
2023-03-26T10:37:04.960Z,10.89
2023-03-26T10:39:45.047Z,11.03
2023-03-26T10:42:23.638Z,11.12
2023-03-26T10:45:08.499Z,10.20
2023-03-26T10:47:41.971Z,10.71
2023-03-26T10:50:22.901Z,10.94
2023-03-26T10:52:56.171Z,10.80
2023-03-26T10:55:28.378Z,10.37
2023-03-26T10:57:57.586Z,10.66
2023-03-26T11:00:26.477Z,10.43
2023-03-26T11:03:11.268Z,10.50
2023-03-26T11:05:47.988Z,10.66
2023-03-26T11:08:20.199Z,10.77
2023-03-26T11:11:02.540Z,10.78
2023-03-26T11:13:42.025Z,10.74
2023-03-26T11:16:12.176Z,10.75
2023-03-26T11:18:46.022Z,10.78
2023-03-26T11:21:19.510Z,10.79
2023-03-26T11:24:05.131Z,10.88
2023-03-26T11:26:39.369Z,10.52
2023-03-26T11:29:35.149Z,10.90
2023-03-26T11:32:05.956Z,11.10
2023-03-26T11:34:37.130Z,11.21
2023-03-26T11:37:06.990Z,11.05
2023-03-26T11:39:41.208Z,11.15
2023-03-26T11:42:10.931Z,10.94
2023-03-26T11:44:46.326Z,10.20
2023-03-26T11:47:15.637Z,9.88
2023-03-26T11:49:43.484Z,9.95
2023-03-26T11:52:11.993Z,9.85
2023-03-26T11:54:48.355Z,9.50
2023-03-26T11:57:18.594Z,9.31
2023-03-26T11:59:56.486Z,8.83
2023-03-26T12:02:29.108Z,8.79
2023-03-26T12:05:12.064Z,9.21
2023-03-26T12:07:46.640Z,9.38
2023-03-26T12:10:27.558Z,9.22
2023-03-26T12:12:57.122Z,9.05
2023-03-26T12:15:25.020Z,9.41
2023-03-26T12:17:56.104Z,9.54
2023-03-26T12:20:32.434Z,8.99
2023-03-26T12:23:00.508Z,8.91
2023-03-26T12:25:32.896Z,9.10
2023-03-26T12:28:02.980Z,8.95
2023-03-26T12:30:33.781Z,9.02
2023-03-26T12:33:03.972Z,8.72
2023-03-26T12:35:34.374Z,8.53
2023-03-26T12:38:22.881Z,8.63
2023-03-26T12:41:05.327Z,8.50
2023-03-26T12:44:56.403Z,8.77
2023-03-26T12:47:56.061Z,8.58
2023-03-26T12:49:17.386Z,8.27
2023-03-26T12:51:47.860Z,7.65
2023-03-26T12:54:28.886Z,7.49
2023-03-26T12:57:11.841Z,7.63
2023-03-26T12:59:48.831Z,7.53
2023-03-26T13:02:37.664Z,7.38
2023-03-26T13:05:12.054Z,7.64
2023-03-26T13:07:52.236Z,7.75
2023-03-26T13:10:29.264Z,7.88
2023-03-26T13:13:02.278Z,7.78
2023-03-26T13:15:31.534Z,7.86
2023-03-26T13:18:07.597Z,8.03
2023-03-26T13:20:44.312Z,7.97
2023-03-26T13:23:15.822Z,7.97
2023-03-26T13:25:46.333Z,7.83
2023-03-26T13:28:22.706Z,7.89
2023-03-26T13:30:53.330Z,8.16
2023-03-26T13:33:29.603Z,8.08
2023-03-26T13:36:14.338Z,7.92
2023-03-26T13:38:58.815Z,8.03
2023-03-26T13:41:33.028Z,8.27
2023-03-26T13:44:06.985Z,8.00
2023-03-26T13:46:36.169Z,8.06
2023-03-26T13:49:04.775Z,8.05
2023-03-26T13:51:36.088Z,8.24
2023-03-26T13:54:12.488Z,8.29
2023-03-26T13:56:43.392Z,8.30
2023-03-26T13:59:16.366Z,8.15
2023-03-26T14:01:49.244Z,8.27
2023-03-26T14:04:21.536Z,8.17
2023-03-26T14:06:54.038Z,8.09
2023-03-26T14:09:25.098Z,8.37
2023-03-26T14:11:59.521Z,8.50
2023-03-26T14:14:32.797Z,8.31
2023-03-26T14:17:02.944Z,7.93
2023-03-26T14:19:55.006Z,7.87
2023-03-26T14:22:27.271Z,7.91
2023-03-26T14:24:59.201Z,7.84
2023-03-26T14:27:41.860Z,7.71
2023-03-26T14:30:29.680Z,8.18
2023-03-26T14:33:04.279Z,8.37
2023-03-26T14:35:35.233Z,8.03
2023-03-26T14:38:16.331Z,7.81
2023-03-26T14:40:59.477Z,7.57
2023-03-26T14:43:50.465Z,7.43
2023-03-26T14:46:26.772Z,7.53
2023-03-26T14:49:04.722Z,7.54
2023-03-26T14:51:41.449Z,7.65
2023-03-26T14:54:12.041Z,7.59
2023-03-26T14:56:53.698Z,7.57
2023-03-26T14:59:42.902Z,7.47
2023-03-26T15:02:44.508Z,7.90
2023-03-26T15:05:52.204Z,7.93
2023-03-26T15:08:55.667Z,7.98
2023-03-26T15:11:28.652Z,8.07
2023-03-26T15:14:08.570Z,8.26
2023-03-26T15:17:14.611Z,7.41
2023-03-26T15:20:26.085Z,7.11
2023-03-26T15:23:26.533Z,7.42
2023-03-26T15:26:07.806Z,7.28
2023-03-26T15:29:04.951Z,7.98
2023-03-26T15:31:48.088Z,7.87
2023-03-26T15:34:39.467Z,7.92
2023-03-26T15:37:30.206Z,7.90
2023-03-26T15:40:36.243Z,7.94
2023-03-26T15:43:07.760Z,7.77
2023-03-26T15:45:36.968Z,7.40
2023-03-26T15:48:22.788Z,7.53
2023-03-26T15:50:55.811Z,7.72
2023-03-26T15:53:29.734Z,7.25
2023-03-26T15:56:07.025Z,7.74
2023-03-26T15:58:38.128Z,7.98
2023-03-26T16:01:18.866Z,8.06
2023-03-26T16:03:50.427Z,7.82
2023-03-26T16:06:27.913Z,8.20
2023-03-26T16:09:07.929Z,8.23
2023-03-26T16:11:54.544Z,7.64
2023-03-26T16:14:23.972Z,7.54
2023-03-26T16:16:56.367Z,7.31
2023-03-26T16:19:32.960Z,7.62
2023-03-26T16:22:01.837Z,7.51
2023-03-26T16:24:31.997Z,7.77
2023-03-26T16:27:09.605Z,8.15
2023-03-26T16:30:10.878Z,8.31
2023-03-26T16:32:41.668Z,7.82
2023-03-26T16:35:34.402Z,7.66
2023-03-26T16:38:05.740Z,8.11
2023-03-26T16:40:34.874Z,8.29
2023-03-26T16:43:19.853Z,8.28
2023-03-26T16:45:50.624Z,8.34
2023-03-26T16:48:23.877Z,8.29
2023-03-26T16:50:53.477Z,8.20
2023-03-26T16:53:29.931Z,8.23
2023-03-26T16:55:58.787Z,8.24
2023-03-26T16:58:31.714Z,8.30
2023-03-26T17:01:07.725Z,8.12
2023-03-26T17:03:43.754Z,8.13
2023-03-26T17:06:28.252Z,8.36
2023-03-26T17:09:01.015Z,8.19
2023-03-26T17:11:32.336Z,8.23
2023-03-26T17:14:09.613Z,8.13
2023-03-26T17:16:39.758Z,8.28
2023-03-26T17:19:15.235Z,8.28
2023-03-26T17:21:49.207Z,8.31
2023-03-26T17:24:24.135Z,7.70
2023-03-26T17:27:09.826Z,8.05
2023-03-26T17:29:52.594Z,7.93
2023-03-26T17:32:21.499Z,8.04
2023-03-26T17:34:57.263Z,8.06
2023-03-26T17:37:47.964Z,7.92
2023-03-26T17:41:00.459Z,8.15
2023-03-26T17:43:36.471Z,8.42
2023-03-26T17:46:06.928Z,8.33
2023-03-26T17:48:35.543Z,8.08
2023-03-26T17:51:03.954Z,7.88
2023-03-26T17:53:32.166Z,7.84
2023-03-26T17:56:03.740Z,8.07
2023-03-26T17:58:33.179Z,7.99
2023-03-26T18:01:08.574Z,8.01
2023-03-26T18:03:37.405Z,8.24
2023-03-26T18:06:07.954Z,8.18
2023-03-26T18:08:45.201Z,8.12
2023-03-26T18:11:38.651Z,8.22
2023-03-26T18:14:45.143Z,7.82
2023-03-26T18:17:14.391Z,7.73
2023-03-26T18:19:49.019Z,7.90
2023-03-26T18:22:19.986Z,7.95
2023-03-26T18:24:47.860Z,7.37
2023-03-26T18:27:16.786Z,7.16
2023-03-26T18:29:45.170Z,7.38
2023-03-26T18:32:22.117Z,7.65
2023-03-26T18:34:52.660Z,7.78
2023-03-26T18:37:21.089Z,7.69
2023-03-26T18:39:58.239Z,7.62
2023-03-26T18:42:26.178Z,7.86
2023-03-26T18:44:54.187Z,7.70
2023-03-26T18:47:30.913Z,7.77
2023-03-26T18:49:58.648Z,7.85
2023-03-26T18:52:26.440Z,7.87
2023-03-26T18:54:54.456Z,8.06
2023-03-26T18:57:23.452Z,7.82
2023-03-26T18:59:51.751Z,7.91
2023-03-26T19:02:19.908Z,7.91
2023-03-26T19:04:54.416Z,7.68
2023-03-26T19:07:23.356Z,7.33
2023-03-26T19:09:56.010Z,7.55
2023-03-26T19:12:24.858Z,7.80
2023-03-26T19:14:55.461Z,7.82
2023-03-26T19:17:23.812Z,7.85
2023-03-26T19:19:53.339Z,8.16
2023-03-26T19:22:21.042Z,7.79
2023-03-26T19:24:48.799Z,7.59
2023-03-26T19:27:16.681Z,7.27
2023-03-26T19:29:44.466Z,7.01
2023-03-26T19:32:17.491Z,7.40
2023-03-26T19:34:45.748Z,7.63
2023-03-26T19:37:20.381Z,7.62
2023-03-26T19:39:49.377Z,7.96
2023-03-26T19:42:27.630Z,7.52
2023-03-26T19:45:16.235Z,7.32
2023-03-26T19:47:50.189Z,7.21
2023-03-26T19:50:25.559Z,7.45
2023-03-26T19:53:16.706Z,7.50
2023-03-26T19:55:53.664Z,7.36
2023-03-26T19:58:21.469Z,7.10
2023-03-26T20:00:49.257Z,6.78
2023-03-26T20:03:17.140Z,6.54
2023-03-26T20:05:45.048Z,6.51
2023-03-26T20:08:14.964Z,6.51
2023-03-26T20:10:43.076Z,6.53
2023-03-26T20:13:14.471Z,6.56
2023-03-26T20:15:42.237Z,6.82
2023-03-26T20:18:12.213Z,7.14
2023-03-26T20:20:41.099Z,7.48
2023-03-26T20:23:16.962Z,6.66
2023-03-26T20:25:49.721Z,6.25
2023-03-26T20:28:19.654Z,6.47
2023-03-26T20:30:47.784Z,6.86
2023-03-26T20:33:18.291Z,6.91
2023-03-26T20:35:46.158Z,6.92
2023-03-26T20:38:15.482Z,6.95
2023-03-26T20:40:44.766Z,6.95
2023-03-26T20:43:13.384Z,6.36
2023-03-26T20:45:41.616Z,6.67
2023-03-26T20:48:10.245Z,6.50
2023-03-26T20:50:41.592Z,6.34
2023-03-26T20:53:18.914Z,6.08
2023-03-26T20:55:46.678Z,6.05
2023-03-26T20:58:15.108Z,5.85
2023-03-26T21:00:44.614Z,6.08
2023-03-26T21:03:13.030Z,5.81
2023-03-26T21:05:41.270Z,5.89
2023-03-26T21:08:14.491Z,5.84
2023-03-26T21:10:44.610Z,5.68
2023-03-26T21:13:14.227Z,5.78
2023-03-26T21:15:42.372Z,6.15
2023-03-26T21:18:13.931Z,6.39
2023-03-26T21:20:41.729Z,6.50
2023-03-26T21:23:12.946Z,6.61
2023-03-26T21:25:44.153Z,6.75
2023-03-26T21:28:28.861Z,6.76
2023-03-26T21:31:04.746Z,6.75
2023-03-26T21:33:32.647Z,6.71
2023-03-26T21:36:00.663Z,6.70
2023-03-26T21:38:32.310Z,6.67
2023-03-26T21:41:02.399Z,6.49
2023-03-26T21:43:30.489Z,6.69
2023-03-26T21:45:59.242Z,6.86
2023-03-26T21:48:27.457Z,6.78
2023-03-26T21:50:55.892Z,6.83
2023-03-26T21:53:27.298Z,6.71
2023-03-26T21:55:58.835Z,6.75
2023-03-26T21:58:32.662Z,6.68
2023-03-26T22:01:19.642Z,6.83
2023-03-26T22:03:53.910Z,6.91
2023-03-26T22:06:23.005Z,6.85
2023-03-26T22:08:51.065Z,6.91
2023-03-26T22:11:18.777Z,6.94
2023-03-26T22:13:47.828Z,6.92
2023-03-26T22:16:16.839Z,6.88
2023-03-26T22:18:44.663Z,6.89
2023-03-26T22:21:12.811Z,6.83
2023-03-26T22:23:40.507Z,6.86
2023-03-26T22:26:08.229Z,6.87
2023-03-26T22:28:36.500Z,6.78
2023-03-26T22:31:08.549Z,6.73
2023-03-26T22:33:36.775Z,6.61
2023-03-26T22:36:04.899Z,6.57
2023-03-26T22:38:52.912Z,6.76
2023-03-26T22:41:20.680Z,6.59
2023-03-26T22:43:48.380Z,6.48
2023-03-26T22:46:17.624Z,6.36
2023-03-26T22:48:45.856Z,6.19
2023-03-26T22:51:13.915Z,6.27
2023-03-26T22:53:41.916Z,6.33
2023-03-26T22:56:10.734Z,6.24
2023-03-26T22:58:38.571Z,6.18
2023-03-26T23:01:08.236Z,5.99
2023-03-26T23:03:37.852Z,6.01
2023-03-26T23:06:07.097Z,5.76
2023-03-26T23:08:35.256Z,6.00
2023-03-26T23:11:02.973Z,5.78
2023-03-26T23:13:30.973Z,5.52
2023-03-26T23:15:58.847Z,5.74
2023-03-26T23:18:26.570Z,5.69
2023-03-26T23:20:57.231Z,5.70
2023-03-26T23:23:27.740Z,5.96
2023-03-26T23:25:55.493Z,5.67
2023-03-26T23:28:23.957Z,5.82
2023-03-26T23:30:53.216Z,5.50
2023-03-26T23:33:22.165Z,5.50
2023-03-26T23:35:50.832Z,5.60
2023-03-26T23:38:22.250Z,5.51
2023-03-26T23:40:57.416Z,5.38
2023-03-26T23:43:25.518Z,5.63
2023-03-26T23:45:53.390Z,5.51
2023-03-26T23:48:22.433Z,5.69
2023-03-26T23:50:50.544Z,5.73
2023-03-26T23:53:18.274Z,5.37
2023-03-26T23:55:48.068Z,5.35
2023-03-26T23:58:16.052Z,5.78
